Time;durP1;ratioP1;P1;durP2;ratioP2;P2;SDS_P1;SDS_P2;PMS_P1;PMS_P2;Temp;Humidity;BMP_temperature;BMP_pressure;BME280_temperature;BME280_humidity;BME280_pressure;Samples;Min_cycle;Max_cycle;Signal;HPM_P1;HPM_P2
2022/02/19 00:00:42;;;;;;;3.50;0.82;;;;;;;-146.05;100.00;59461.22;5054037;28;20049;-76
2022/02/19 00:03:11;;;;;;;6.40;1.08;;;;;;;-146.05;100.00;59461.22;5054050;28;20127;-77
2022/02/19 00:05:39;;;;;;;5.70;1.90;;;;;;;-146.05;100.00;59461.22;5054480;28;20053;-77
2022/02/19 00:08:08;;;;;;;2.70;0.52;;;;;;;-146.05;100.00;59461.22;5054651;28;20052;-78
2022/02/19 00:10:36;;;;;;;4.57;1.75;;;;;;;-146.05;100.00;59461.22;5054683;28;20473;-77
2022/02/19 00:13:03;;;;;;;1.95;0.52;;;;;;;-146.05;100.00;59461.22;5054141;28;20076;-77
2022/02/19 00:15:31;;;;;;;3.58;0.63;;;;;;;-146.05;100.00;59461.22;5053819;28;20045;-77
2022/02/19 00:17:59;;;;;;;4.13;0.90;;;;;;;-146.05;100.00;59461.22;5053724;28;20422;-77
2022/02/19 00:20:30;;;;;;;2.95;0.50;;;;;;;-146.05;100.00;59461.22;5053977;28;20049;-77
2022/02/19 00:22:58;;;;;;;4.22;1.02;;;;;;;-146.05;100.00;59461.22;5053766;28;20063;-77
2022/02/19 00:25:26;;;;;;;5.25;0.80;;;;;;;-146.05;100.00;59461.22;5053038;28;20081;-77
2022/02/19 00:27:54;;;;;;;1.35;0.80;;;;;;;-146.05;100.00;59461.22;5053222;28;20495;-77
2022/02/19 00:30:22;;;;;;;4.55;0.68;;;;;;;-146.05;100.00;59461.22;5053467;28;20140;-77
2022/02/19 00:32:49;;;;;;;4.05;1.38;;;;;;;-146.05;100.00;59461.22;5053366;28;20059;-77
2022/02/19 00:35:18;;;;;;;3.15;1.02;;;;;;;-146.05;100.00;59461.22;5053540;28;20049;-77
2022/02/19 00:37:47;;;;;;;1.02;0.50;;;;;;;-146.05;100.00;59461.22;5052971;28;20045;-77
2022/02/19 00:40:14;;;;;;;4.72;0.80;;;;;;;-146.05;100.00;59461.22;5052867;28;20090;-77
2022/02/19 00:42:42;;;;;;;3.45;0.93;;;;;;;-146.05;100.00;59461.22;5053350;28;20049;-77
2022/02/19 00:45:10;;;;;;;4.93;0.95;;;;;;;-146.05;100.00;59461.22;5053201;28;20052;-77
2022/02/19 00:47:38;;;;;;;4.72;0.68;;;;;;;-146.05;100.00;59461.22;5053091;28;20052;-77
2022/02/19 00:50:08;;;;;;;3.05;1.10;;;;;;;-146.05;100.00;59461.22;5053077;28;20064;-78
2022/02/19 00:52:35;;;;;;;4.63;0.60;;;;;;;-146.05;100.00;59461.22;5053018;28;20048;-76
2022/02/19 00:55:06;;;;;;;2.13;0.68;;;;;;;-146.05;100.00;59461.22;5053030;28;20045;-78
2022/02/19 00:57:33;;;;;;;1.92;0.68;;;;;;;-146.05;100.00;59461.22;5052781;28;20412;-76
2022/02/19 01:00:01;;;;;;;3.88;0.60;;;;;;;-146.05;100.00;59461.22;5052781;28;20052;-77
2022/02/19 01:02:29;;;;;;;5.13;0.65;;;;;;;-146.05;100.00;59461.22;5053278;28;20457;-77
2022/02/19 01:04:56;;;;;;;4.38;0.80;;;;;;;-146.05;100.00;59461.22;5052884;28;20053;-77
2022/02/19 01:07:24;;;;;;;3.58;0.63;;;;;;;-146.05;100.00;59461.22;5052823;28;20061;-77
2022/02/19 01:09:51;;;;;;;2.22;0.57;;;;;;;-146.05;100.00;59461.22;5053088;28;20048;-77
2022/02/19 01:12:20;;;;;;;3.33;0.80;;;;;;;-146.05;100.00;59461.22;5052959;28;20059;-77
2022/02/19 01:14:48;;;;;;;3.40;1.20;;;;;;;-146.05;100.00;59461.22;5052732;28;20056;-77
2022/02/19 01:17:16;;;;;;;4.10;0.57;;;;;;;-146.05;100.00;59461.22;5052248;28;20060;-77
2022/02/19 01:19:44;;;;;;;2.00;0.80;;;;;;;-146.05;100.00;59461.22;5052420;28;20041;-78
2022/02/19 01:22:11;;;;;;;3.70;0.63;;;;;;;-146.05;100.00;59461.22;5052885;28;20514;-77
2022/02/19 01:24:39;;;;;;;4.18;1.33;;;;;;;-146.05;100.00;59461.22;5052719;28;20075;-77
2022/02/19 01:27:07;;;;;;;1.42;0.57;;;;;;;-146.05;100.00;59461.22;5052490;28;20095;-76
2022/02/19 01:29:36;;;;;;;2.10;0.80;;;;;;;-146.05;100.00;59461.22;5052306;28;20048;-77
2022/02/19 01:32:05;;;;;;;3.90;0.82;;;;;;;-146.05;100.00;59461.22;5052696;28;20053;-77
2022/02/19 01:34:32;;;;;;;7.50;1.45;;;;;;;-146.05;100.00;59461.22;5052687;28;20052;-77
2022/02/19 01:37:00;;;;;;;3.30;1.00;;;;;;;-146.05;100.00;59461.22;5052029;28;20048;-77
2022/02/19 01:39:29;;;;;;;3.03;0.65;;;;;;;-146.05;100.00;59461.22;5052399;28;20056;-77
2022/02/19 01:41:57;;;;;;;4.93;1.15;;;;;;;-146.05;100.00;59461.22;5052513;28;20485;-77
2022/02/19 01:44:35;;;;;;;4.63;0.80;;;;;;;-146.05;100.00;59461.22;5052540;28;20419;-77
2022/02/19 01:47:05;;;;;;;2.70;0.90;;;;;;;-146.05;100.00;59461.22;5052491;28;20136;-76
2022/02/19 01:49:33;;;;;;;3.42;0.70;;;;;;;-146.05;100.00;59461.22;5052731;28;20060;-77
2022/02/19 01:52:01;;;;;;;6.70;1.10;;;;;;;-146.05;100.00;59461.22;5052522;28;20049;-78
2022/02/19 01:54:29;;;;;;;4.90;1.10;;;;;;;-146.05;100.00;59461.22;5052163;28;20053;-77
2022/02/19 01:56:56;;;;;;;6.05;1.20;;;;;;;-146.05;100.00;59461.22;5051873;28;20053;-77
2022/02/19 01:59:24;;;;;;;2.22;0.90;;;;;;;-146.05;100.00;59461.22;5052239;28;20045;-77
2022/02/19 02:01:51;;;;;;;4.80;1.00;;;;;;;-146.05;100.00;59461.22;5052327;28;20052;-77
2022/02/19 02:04:20;;;;;;;6.70;1.05;;;;;;;-146.05;100.00;59461.22;5052223;28;20045;-77
2022/02/19 02:06:48;;;;;;;3.65;0.95;;;;;;;-146.05;100.00;59461.22;5052079;28;20072;-77
2022/02/19 02:09:17;;;;;;;6.38;1.02;;;;;;;-146.05;100.00;59461.22;5052201;28;20049;-77
2022/02/19 02:11:45;;;;;;;5.47;1.10;;;;;;;-146.05;100.00;59461.22;5052525;28;20053;-77
2022/02/19 02:14:13;;;;;;;4.53;0.73;;;;;;;-146.05;100.00;59461.22;5052222;28;20049;-77
2022/02/19 02:16:42;;;;;;;6.10;0.70;;;;;;;-146.05;100.00;59461.22;5052134;28;20057;-77
2022/02/19 02:19:11;;;;;;;3.35;0.65;;;;;;;-146.05;100.00;59461.22;5052041;28;20111;-77
2022/02/19 02:21:40;;;;;;;3.08;0.80;;;;;;;-146.05;100.00;59461.22;5052249;28;20045;-77
2022/02/19 02:24:08;;;;;;;4.35;1.55;;;;;;;-146.05;100.00;59461.22;5052004;28;20060;-78
2022/02/19 02:26:36;;;;;;;5.50;1.17;;;;;;;-146.05;100.00;59461.22;5052003;28;20072;-78
2022/02/19 02:29:03;;;;;;;1.63;0.73;;;;;;;-146.05;100.00;59461.22;5052034;28;20403;-77
2022/02/19 02:31:31;;;;;;;2.90;0.85;;;;;;;-146.05;100.00;59461.22;5051979;28;20416;-77
2022/02/19 02:33:59;;;;;;;5.03;1.15;;;;;;;-146.05;100.00;59461.22;5051766;28;20056;-78
2022/02/19 02:36:26;;;;;;;3.85;0.93;;;;;;;-146.05;100.00;59461.22;5051298;28;20688;-77
2022/02/19 02:38:57;;;;;;;2.53;0.80;;;;;;;-146.05;100.00;59461.22;5051632;28;20049;-77
2022/02/19 02:41:26;;;;;;;3.50;1.10;;;;;;;-146.05;100.00;59461.22;5051857;28;20055;-77
2022/02/19 02:43:53;;;;;;;5.55;1.00;;;;;;;-146.05;100.00;59461.22;5051703;28;20418;-77
2022/02/19 02:46:21;;;;;;;2.97;1.40;;;;;;;-146.05;100.00;59461.22;5051545;28;20059;-77
2022/02/19 02:48:48;;;;;;;3.30;0.80;;;;;;;-146.05;100.00;59461.22;5052597;28;20060;-77
2022/02/19 02:51:16;;;;;;;6.78;1.25;;;;;;;-146.05;100.00;59461.22;5055624;28;20049;-77
2022/02/19 02:53:43;;;;;;;4.05;1.10;;;;;;;-146.05;100.00;59461.22;5055540;28;20132;-77
2022/02/19 02:56:12;;;;;;;4.10;1.10;;;;;;;-146.05;100.00;59461.22;5055258;28;20298;-77
2022/02/19 02:58:40;;;;;;;4.85;1.08;;;;;;;-146.05;100.00;59461.22;5055103;28;20056;-77
2022/02/19 03:01:08;;;;;;;5.85;1.42;;;;;;;-146.05;100.00;59461.22;5054901;28;20045;-77
2022/02/19 03:03:35;;;;;;;5.43;1.13;;;;;;;-146.05;100.00;59461.22;5054870;28;20057;-77
2022/02/19 03:06:04;;;;;;;6.43;1.52;;;;;;;-146.05;100.00;59461.22;5055052;28;20048;-77
2022/02/19 03:08:32;;;;;;;3.88;0.85;;;;;;;-146.05;100.00;59461.22;5054827;28;20534;-77
2022/02/19 03:10:59;;;;;;;6.28;1.10;;;;;;;-146.05;100.00;59461.22;5055180;28;20072;-77
2022/02/19 03:13:29;;;;;;;3.03;0.98;;;;;;;-146.05;100.00;59461.22;5055145;28;20060;-77
2022/02/19 03:15:57;;;;;;;5.28;0.88;;;;;;;-146.05;100.00;59461.22;5054456;28;20429;-77
2022/02/19 03:18:24;;;;;;;3.50;0.93;;;;;;;-146.05;100.00;59461.22;5055171;28;20060;-77
2022/02/19 03:20:51;;;;;;;3.28;0.93;;;;;;;-146.05;100.00;59461.22;5054826;28;20438;-77
2022/02/19 03:23:19;;;;;;;5.03;0.60;;;;;;;-146.05;100.00;59461.22;5054892;28;20418;-77
2022/02/19 03:25:46;;;;;;;6.30;0.90;;;;;;;-146.05;100.00;59461.22;5054310;28;20045;-76
2022/02/19 03:28:14;;;;;;;5.90;2.05;;;;;;;-146.05;100.00;59461.22;5054360;28;20530;-77
2022/02/19 03:30:43;;;;;;;4.93;0.73;;;;;;;-146.05;100.00;59461.22;5054596;28;20063;-77
2022/02/19 03:33:10;;;;;;;4.28;0.90;;;;;;;-146.05;100.00;59461.22;5054699;28;20060;-77
2022/02/19 03:35:38;;;;;;;4.97;1.42;;;;;;;-146.05;100.00;59461.22;5054540;28;20451;-77
2022/02/19 03:38:05;;;;;;;8.20;1.02;;;;;;;-146.05;100.00;59461.22;5054275;28;20063;-77
2022/02/19 03:40:33;;;;;;;5.57;0.80;;;;;;;-146.05;100.00;59461.22;5054033;28;20122;-77
2022/02/19 03:43:01;;;;;;;5.28;1.15;;;;;;;-146.05;100.00;59461.22;5054507;28;20053;-77
2022/02/19 03:45:29;;;;;;;7.00;1.02;;;;;;;-146.05;100.00;59461.22;5054098;28;20049;-77
2022/02/19 03:47:58;;;;;;;8.10;1.70;;;;;;;-146.05;100.00;59461.22;5053891;28;20048;-77
2022/02/19 03:50:25;;;;;;;6.18;0.93;;;;;;;-146.05;100.00;59461.22;5054105;28;20403;-77
2022/02/19 03:52:53;;;;;;;4.03;1.27;;;;;;;-146.05;100.00;59461.22;5053791;28;20045;-77
2022/02/19 03:55:20;;;;;;;4.68;0.98;;;;;;;-146.05;100.00;59461.22;5054866;28;20232;-77
2022/02/19 03:57:48;;;;;;;4.30;1.10;;;;;;;-146.05;100.00;59461.22;5055013;28;20048;-77
2022/02/19 04:00:16;;;;;;;6.72;1.10;;;;;;;-146.05;100.00;59461.22;5055303;28;20056;-77
2022/02/19 04:02:44;;;;;;;4.47;1.20;;;;;;;-146.05;100.00;59461.22;5055314;28;20465;-77
2022/02/19 04:05:14;;;;;;;5.57;1.88;;;;;;;-146.05;100.00;59461.22;5053958;28;20136;-77
2022/02/19 04:07:42;;;;;;;3.72;1.00;;;;;;;-146.05;100.00;59461.22;5053841;28;20052;-77
2022/02/19 04:10:10;;;;;;;6.53;1.08;;;;;;;-146.05;100.00;59461.22;5053533;28;20041;-77
2022/02/19 04:12:38;;;;;;;4.93;1.08;;;;;;;-146.05;100.00;59461.22;5054214;28;20059;-77
2022/02/19 04:15:06;;;;;;;6.40;1.33;;;;;;;-146.05;100.00;59461.22;5053633;28;20041;-77
2022/02/19 04:17:34;;;;;;;4.65;1.58;;;;;;;-146.05;100.00;59461.22;5053102;28;20506;-77
2022/02/19 04:20:01;;;;;;;3.95;0.93;;;;;;;-146.05;100.00;59461.22;5053346;28;20045;-77
2022/02/19 04:22:30;;;;;;;4.50;1.73;;;;;;;-146.05;100.00;59461.22;5053647;28;20049;-77
2022/02/19 04:24:58;;;;;;;5.07;1.10;;;;;;;-146.05;100.00;59461.22;5053444;28;20060;-77
2022/02/19 04:27:25;;;;;;;4.88;1.00;;;;;;;-146.05;100.00;59461.22;5054735;28;20041;-77
2022/02/19 04:29:53;;;;;;;3.65;0.85;;;;;;;-146.05;100.00;59461.22;5054122;28;20048;-77
2022/02/19 04:32:20;;;;;;;5.65;1.98;;;;;;;-146.05;100.00;59461.22;5053514;28;20060;-77
2022/02/19 04:34:48;;;;;;;4.93;0.93;;;;;;;-146.05;100.00;59461.22;5052870;28;20049;-77
2022/02/19 04:37:17;;;;;;;4.03;0.93;;;;;;;-146.05;100.00;59461.22;5052505;28;20469;-77
2022/02/19 04:39:46;;;;;;;5.53;1.33;;;;;;;-146.05;100.00;59461.22;5053209;28;20045;-78
2022/02/19 04:42:13;;;;;;;4.90;1.02;;;;;;;-146.05;100.00;59461.22;5053175;28;20060;-77
2022/02/19 04:44:41;;;;;;;3.85;1.23;;;;;;;-146.05;100.00;59461.22;5053156;28;20103;-77
2022/02/19 04:47:09;;;;;;;7.15;0.82;;;;;;;-146.05;100.00;59461.22;5052888;28;20087;-77
2022/02/19 04:49:36;;;;;;;6.47;1.35;;;;;;;-146.05;100.00;59461.22;5053572;28;20437;-77
2022/02/19 04:52:04;;;;;;;4.80;0.85;;;;;;;-146.05;100.00;59461.22;5053018;28;20502;-77
2022/02/19 04:54:32;;;;;;;5.10;0.98;;;;;;;-146.05;100.00;59461.22;5053276;28;20059;-77
2022/02/19 04:57:01;;;;;;;4.50;0.82;;;;;;;-146.05;100.00;59461.22;5052591;28;20063;-77
2022/02/19 04:59:29;;;;;;;5.30;1.27;;;;;;;-146.05;100.00;59461.22;5052768;28;20546;-77
2022/02/19 05:01:56;;;;;;;2.97;0.70;;;;;;;-146.05;100.00;59461.22;5052415;28;20653;-77
2022/02/19 05:04:23;;;;;;;3.53;0.80;;;;;;;-146.05;100.00;59461.22;5052416;28;20045;-77
2022/02/19 05:06:51;;;;;;;2.72;0.60;;;;;;;-146.05;100.00;59461.22;5052076;28;20049;-77
2022/02/19 05:09:19;;;;;;;4.65;1.05;;;;;;;-146.05;100.00;59461.22;5052538;28;20052;-77
2022/02/19 05:11:46;;;;;;;6.50;1.08;;;;;;;-146.05;100.00;59461.22;5052108;28;20049;-77
2022/02/19 05:14:15;;;;;;;2.28;0.73;;;;;;;-146.05;100.00;59461.22;5052520;28;20049;-77
2022/02/19 05:16:42;;;;;;;6.28;1.00;;;;;;;-146.05;100.00;59461.22;5051963;28;20053;-77
2022/02/19 05:19:10;;;;;;;3.08;0.93;;;;;;;-146.05;100.00;59461.22;5052534;28;20049;-77
2022/02/19 05:21:38;;;;;;;6.28;1.23;;;;;;;-146.05;100.00;59461.22;5052587;28;20041;-77
2022/02/19 05:24:06;;;;;;;6.20;0.98;;;;;;;-146.05;100.00;59461.22;5052405;28;20051;-77
2022/02/19 05:26:33;;;;;;;4.32;1.05;;;;;;;-146.05;100.00;59461.22;5052097;28;20059;-77
2022/02/19 05:29:01;;;;;;;7.15;1.10;;;;;;;-146.05;100.00;59461.22;5052080;28;20053;-77
2022/02/19 05:31:30;;;;;;;6.82;1.38;;;;;;;-146.05;100.00;59461.22;5052171;28;20494;-77
2022/02/19 05:33:57;;;;;;;3.00;0.93;;;;;;;-146.05;100.00;59461.22;5052596;28;20049;-77
2022/02/19 05:36:24;;;;;;;5.20;1.00;;;;;;;-146.05;100.00;59461.22;5052208;28;20460;-77
2022/02/19 05:38:54;;;;;;;4.43;1.27;;;;;;;-146.05;100.00;59461.22;5052093;28;20414;-77
2022/02/19 05:41:21;;;;;;;5.45;0.75;;;;;;;-146.05;100.00;59461.22;5052462;28;20049;-79
2022/02/19 05:43:49;;;;;;;5.78;1.17;;;;;;;-146.05;100.00;59461.22;5052773;28;20049;-79
2022/02/19 05:46:16;;;;;;;3.20;0.77;;;;;;;-146.05;100.00;59461.22;5052050;28;20053;-80
2022/02/19 05:48:45;;;;;;;3.80;0.68;;;;;;;-146.05;100.00;59461.22;5052103;28;20075;-77
2022/02/19 05:51:13;;;;;;;5.45;1.15;;;;;;;-146.05;100.00;59461.22;5052484;28;20052;-77
2022/02/19 05:53:40;;;;;;;4.88;1.05;;;;;;;-146.05;100.00;59461.22;5052163;28;20055;-77
2022/02/19 05:56:08;;;;;;;6.55;1.35;;;;;;;-146.05;100.00;59461.22;5051866;28;20286;-77
2022/02/19 05:58:35;;;;;;;4.03;0.63;;;;;;;-146.05;100.00;59461.22;5051804;28;20060;-77
2022/02/19 06:01:03;;;;;;;3.65;0.90;;;;;;;-146.05;100.00;59461.22;5052230;28;20419;-80
2022/02/19 06:03:30;;;;;;;4.13;0.90;;;;;;;-146.05;100.00;59461.22;5051978;28;20041;-79
2022/02/19 06:05:59;;;;;;;5.15;1.00;;;;;;;-146.05;100.00;59461.22;5051808;28;20049;-79
2022/02/19 06:08:27;;;;;;;4.13;0.90;;;;;;;-146.05;100.00;59461.22;5051957;28;20069;-79
2022/02/19 06:10:54;;;;;;;5.45;1.33;;;;;;;-146.05;100.00;59461.22;5051733;28;20056;-79
2022/02/19 06:13:22;;;;;;;5.53;1.02;;;;;;;-146.05;100.00;59461.22;5052096;28;20400;-77
2022/02/19 06:15:49;;;;;;;4.75;1.15;;;;;;;-146.05;100.00;59461.22;5051589;28;20041;-77
2022/02/19 06:18:17;;;;;;;5.85;1.25;;;;;;;-146.05;100.00;59461.22;5051679;28;20056;-76
2022/02/19 06:20:44;;;;;;;7.10;1.52;;;;;;;-146.05;100.00;59461.22;5052012;28;20049;-77
2022/02/19 06:23:13;;;;;;;5.75;0.85;;;;;;;-146.05;100.00;59461.22;5051715;28;20052;-77
2022/02/19 06:25:41;;;;;;;5.78;1.00;;;;;;;-146.05;100.00;59461.22;5055716;28;20041;-76
2022/02/19 06:28:08;;;;;;;2.75;1.10;;;;;;;-146.05;100.00;59461.22;5055517;28;20067;-78
2022/02/19 06:30:36;;;;;;;5.95;1.17;;;;;;;-146.05;100.00;59461.22;5055297;28;20045;-77
2022/02/19 06:33:03;;;;;;;8.90;1.50;;;;;;;-146.05;100.00;59461.22;5055443;28;20510;-77
2022/02/19 06:35:31;;;;;;;4.63;1.40;;;;;;;-146.05;100.00;59461.22;5056580;28;20052;-77
2022/02/19 06:37:58;;;;;;;6.78;1.30;;;;;;;-146.05;100.00;59461.22;5057800;28;20056;-77
2022/02/19 06:40:27;;;;;;;3.25;1.23;;;;;;;-146.05;100.00;59461.22;5056072;28;20045;-77
2022/02/19 06:42:55;;;;;;;6.38;1.05;;;;;;;-146.05;100.00;59461.22;5055785;28;20430;-76
2022/02/19 06:45:22;;;;;;;9.20;1.85;;;;;;;-146.05;100.00;59461.22;5055818;28;20048;-77
2022/02/19 06:47:50;;;;;;;3.08;1.00;;;;;;;-146.05;100.00;59461.22;5054781;28;20052;-76
2022/02/19 06:50:17;;;;;;;6.43;1.35;;;;;;;-146.05;100.00;59461.22;5054918;28;20041;-77
2022/02/19 06:52:45;;;;;;;7.07;1.55;;;;;;;-146.05;100.00;59461.22;5055105;28;20541;-76
2022/02/19 06:55:12;;;;;;;3.70;1.08;;;;;;;-146.05;100.00;59461.22;5055433;28;20045;-77
2022/02/19 06:57:41;;;;;;;1.92;0.90;;;;;;;-146.05;100.00;59461.22;5054596;28;20045;-77
2022/02/19 07:00:11;;;;;;;10.27;2.20;;;;;;;-146.05;100.00;59461.22;5054952;28;20045;-76
2022/02/19 07:02:38;;;;;;;6.35;1.00;;;;;;;-146.05;100.00;59461.22;5054666;28;20166;-77
2022/02/19 07:05:08;;;;;;;4.22;1.17;;;;;;;-146.05;100.00;59461.22;5054748;28;20045;-77
2022/02/19 07:07:36;;;;;;;4.65;1.38;;;;;;;-146.05;100.00;59461.22;5054533;28;20056;-76
2022/02/19 07:10:04;;;;;;;7.50;1.25;;;;;;;-146.05;100.00;59461.22;5054777;28;20041;-77
2022/02/19 07:12:31;;;;;;;6.57;1.00;;;;;;;-146.05;100.00;59461.22;5054715;28;20056;-77
2022/02/19 07:15:00;;;;;;;5.60;1.65;;;;;;;-146.05;100.00;59461.22;5054806;28;20045;-76
2022/02/19 07:17:28;;;;;;;6.43;1.27;;;;;;;-146.05;100.00;59461.22;5054447;28;20502;-77
2022/02/19 07:19:55;;;;;;;4.78;1.30;;;;;;;-146.05;100.00;59461.22;5054519;28;20049;-77
2022/02/19 07:22:23;;;;;;;6.85;1.40;;;;;;;-146.05;100.00;59461.22;5054797;28;20049;-77
2022/02/19 07:24:50;;;;;;;2.92;1.08;;;;;;;-146.05;100.00;59461.22;5054355;28;20041;-77
2022/02/19 07:27:18;;;;;;;6.05;1.10;;;;;;;-146.05;100.00;59461.22;5053985;28;20080;-77
2022/02/19 07:29:46;;;;;;;8.18;1.38;;;;;;;-146.05;100.00;59461.22;5054203;28;20049;-76
2022/02/19 07:32:16;;;;;;;12.27;1.80;;;;;;;-146.05;100.00;59461.22;5054204;28;20041;-77
2022/02/19 07:34:43;;;;;;;4.93;1.40;;;;;;;-146.05;100.00;59461.22;5053938;28;20140;-77
2022/02/19 07:37:11;;;;;;;4.03;1.25;;;;;;;-146.05;100.00;59461.22;5054132;28;20533;-77
2022/02/19 07:39:39;;;;;;;8.48;2.10;;;;;;;-146.05;100.00;59461.22;5054463;28;20041;-76
2022/02/19 07:42:07;;;;;;;10.38;1.60;;;;;;;-146.05;100.00;59461.22;5054225;28;20049;-77
2022/02/19 07:44:34;;;;;;;8.90;2.17;;;;;;;-146.05;100.00;59461.22;5054473;28;20082;-77
2022/02/19 07:47:02;;;;;;;7.25;1.25;;;;;;;-146.05;100.00;59461.22;5054011;28;20422;-77
2022/02/19 08:00:32;;;;;;;6.32;1.10;;;;;;;-146.05;100.00;59461.22;5053927;28;20049;-77
2022/02/19 08:02:59;;;;;;;8.05;1.27;;;;;;;-146.05;100.00;59461.22;5053579;28;20048;-77
2022/02/19 08:05:28;;;;;;;6.90;1.33;;;;;;;-146.05;100.00;59461.22;5054002;28;20049;-76
2022/02/19 08:07:58;;;;;;;7.05;1.20;;;;;;;-146.05;100.00;59461.22;5060460;28;20148;-77
2022/02/19 08:10:25;;;;;;;9.15;1.65;;;;;;;-146.05;100.00;59461.22;5065076;28;20067;-77
2022/02/19 08:12:53;;;;;;;5.63;1.73;;;;;;;-146.05;100.00;59461.22;5060647;28;20048;-77
2022/02/19 08:15:20;;;;;;;6.22;1.35;;;;;;;-146.05;100.00;59461.22;5054081;28;20057;-77
2022/02/19 08:17:48;;;;;;;6.20;1.30;;;;;;;-146.05;100.00;59461.22;5053374;28;20049;-76
2022/02/19 08:20:15;;;;;;;5.72;1.30;;;;;;;-146.05;100.00;59461.22;5053747;28;20060;-77
2022/02/19 08:22:44;;;;;;;5.10;1.00;;;;;;;-146.05;100.00;59461.22;5053672;28;20064;-77
2022/02/19 08:25:12;;;;;;;8.90;1.92;;;;;;;-146.05;100.00;59461.22;5053432;28;20049;-77
2022/02/19 08:27:39;;;;;;;12.50;1.50;;;;;;;-146.05;100.00;59461.22;5053401;28;20049;-77
2022/02/19 08:30:08;;;;;;;6.47;1.20;;;;;;;-146.05;100.00;59461.22;5053256;28;20078;-77
2022/02/19 08:32:36;;;;;;;9.65;1.40;;;;;;;-146.05;100.00;59461.22;5053165;28;20045;-77
2022/02/19 08:35:03;;;;;;;11.82;2.00;;;;;;;-146.05;100.00;59461.22;5053262;28;20060;-77
2022/02/19 08:37:31;;;;;;;7.05;1.08;;;;;;;-146.05;100.00;59461.22;5053065;28;20414;-76
2022/02/19 08:40:00;;;;;;;8.15;1.30;;;;;;;-146.05;100.00;59461.22;5053483;28;20499;-77
2022/02/19 08:42:28;;;;;;;7.43;1.70;;;;;;;-146.05;100.00;59461.22;5052901;28;20045;-77
2022/02/19 08:44:55;;;;;;;2.60;1.08;;;;;;;-146.05;100.00;59461.22;5054072;28;20052;-77
2022/02/19 08:47:24;;;;;;;7.45;1.23;;;;;;;-146.05;100.00;59461.22;5052821;28;20049;-77
2022/02/19 08:49:52;;;;;;;5.47;1.40;;;;;;;-146.05;100.00;59461.22;5053769;28;20400;-77
2022/02/19 08:52:20;;;;;;;7.90;1.70;;;;;;;-146.05;100.00;59461.22;5053453;28;20044;-77
2022/02/19 08:54:47;;;;;;;5.90;0.98;;;;;;;-146.05;100.00;59461.22;5053108;28;20056;-77
2022/02/19 08:57:17;;;;;;;11.05;2.50;;;;;;;-146.05;100.00;59461.22;5052489;28;20056;-77
2022/02/19 08:59:44;;;;;;;8.07;1.75;;;;;;;-146.05;100.00;59461.22;5052834;28;20507;-77
2022/02/19 09:02:12;;;;;;;5.88;1.20;;;;;;;-146.05;100.00;59461.22;5053565;28;20045;-77
2022/02/19 09:04:39;;;;;;;7.80;2.05;;;;;;;-146.05;100.00;59461.22;5053346;28;20053;-76
2022/02/19 09:07:07;;;;;;;6.68;1.15;;;;;;;-146.05;100.00;59461.22;5052834;28;20053;-78
2022/02/19 09:09:36;;;;;;;9.85;2.10;;;;;;;-146.05;100.00;59461.22;5052871;28;20045;-78
2022/02/19 09:12:05;;;;;;;4.07;1.45;;;;;;;-146.05;100.00;59461.22;5053037;28;20048;-77
2022/02/19 09:14:34;;;;;;;4.00;1.05;;;;;;;-146.05;100.00;59461.22;5053032;28;20049;-78
2022/02/19 09:17:01;;;;;;;13.95;1.90;;;;;;;-146.05;100.00;59461.22;5052900;28;20056;-78
2022/02/19 09:19:29;;;;;;;7.72;1.50;;;;;;;-146.05;100.00;59461.22;5052879;28;20048;-78
2022/02/19 09:21:56;;;;;;;3.65;0.88;;;;;;;-146.05;100.00;59461.22;5052857;28;20045;-78
2022/02/19 09:24:24;;;;;;;11.63;1.55;;;;;;;-146.05;100.00;59461.22;5052925;28;20052;-77
2022/02/19 09:26:52;;;;;;;7.60;1.55;;;;;;;-146.05;100.00;59461.22;5052636;28;20056;-78
2022/02/19 09:29:19;;;;;;;6.85;1.13;;;;;;;-146.05;100.00;59461.22;5053084;28;20053;-78
2022/02/19 09:31:48;;;;;;;7.18;1.40;;;;;;;-146.05;100.00;59461.22;5053406;28;20049;-78
2022/02/19 09:34:16;;;;;;;6.05;1.30;;;;;;;-146.05;100.00;59461.22;5053418;28;20060;-78
2022/02/19 09:36:43;;;;;;;5.82;1.13;;;;;;;-146.05;100.00;59461.22;5052881;28;20052;-78
2022/02/19 09:39:11;;;;;;;3.83;1.33;;;;;;;-146.05;100.00;59461.22;5052411;28;20049;-77
2022/02/19 09:41:38;;;;;;;8.93;2.03;;;;;;;-146.05;100.00;59461.22;5052812;28;20392;-78
2022/02/19 09:44:06;;;;;;;4.07;1.00;;;;;;;-146.05;100.00;59461.22;5053239;28;20045;-79
2022/02/19 09:46:34;;;;;;;5.20;1.20;;;;;;;-146.05;100.00;59461.22;5052133;28;20056;-78
2022/02/19 09:49:04;;;;;;;3.80;0.90;;;;;;;-146.05;100.00;59461.22;5052890;28;20491;-78
2022/02/19 09:51:32;;;;;;;5.10;1.45;;;;;;;-146.05;100.00;59461.22;5052629;28;20052;-78
2022/02/19 09:54:00;;;;;;;5.88;1.42;;;;;;;-146.05;100.00;59461.22;5052818;28;20049;-78
2022/02/19 09:56:29;;;;;;;3.85;1.35;;;;;;;-146.05;100.00;59461.22;5052531;28;20053;-78
2022/02/19 09:58:59;;;;;;;4.22;1.35;;;;;;;-146.05;100.00;59461.22;5055930;28;20053;-77
2022/02/19 10:01:28;;;;;;;3.38;1.33;;;;;;;-146.05;100.00;59461.22;5056666;28;20044;-78
2022/02/19 10:03:57;;;;;;;8.50;0.82;;;;;;;-146.05;100.00;59461.22;5056866;28;20388;-78
2022/02/19 10:06:30;;;;;;;7.93;1.25;;;;;;;-146.05;100.00;59461.22;5056316;28;20136;-78
2022/02/19 10:09:12;;;;;;;2.70;1.10;;;;;;;-146.05;100.00;59461.22;5056770;28;20049;-79
2022/02/19 10:11:40;;;;;;;9.82;1.35;;;;;;;-146.05;100.00;59461.22;5056827;28;20059;-78
2022/02/19 10:14:25;;;;;;;4.22;1.55;;;;;;;-146.05;100.00;59461.22;5056633;28;20075;-78
2022/02/19 10:17:07;;;;;;;4.95;1.48;;;;;;;-146.05;100.00;59461.22;5056184;28;20578;-78
2022/02/19 10:19:46;;;;;;;2.83;1.13;;;;;;;-146.05;100.00;59461.22;5056344;28;20422;-78
2022/02/19 10:22:17;;;;;;;9.23;1.73;;;;;;;-146.05;100.00;59461.22;5055744;28;20560;-81
2022/02/19 10:24:47;;;;;;;16.60;1.67;;;;;;;-146.05;100.00;59461.22;5055466;28;20060;-80
2022/02/19 10:27:15;;;;;;;3.30;0.77;;;;;;;-146.05;100.00;59461.22;5055120;28;20055;-80
2022/02/19 10:29:48;;;;;;;4.63;0.90;;;;;;;-146.05;100.00;59461.22;5071679;22;20052;-83
2022/02/19 10:32:16;;;;;;;5.57;1.15;;;;;;;-146.05;100.00;59461.22;5066307;28;20045;-79
2022/02/19 10:35:05;;;;;;;8.48;0.90;;;;;;;-146.05;100.00;59461.22;5066447;28;20529;-82
2022/02/19 10:37:44;;;;;;;6.35;1.15;;;;;;;-146.05;100.00;59461.22;5064292;28;20151;-82
2022/02/19 10:40:39;;;;;;;8.93;1.30;;;;;;;-146.05;100.00;59461.22;5065491;28;20049;-79
2022/02/19 10:43:09;;;;;;;5.03;1.55;;;;;;;-146.05;100.00;59461.22;5065935;28;20052;-85
2022/02/19 10:45:38;;;;;;;4.32;0.90;;;;;;;-146.05;100.00;59461.22;5064701;28;20136;-82
2022/02/19 10:48:17;;;;;;;6.82;1.25;;;;;;;-146.05;100.00;59461.22;5067657;28;20041;-81
2022/02/19 10:50:47;;;;;;;27.85;2.17;;;;;;;-146.05;100.00;59461.22;5070571;28;20060;-84
2022/02/19 10:53:27;;;;;;;5.55;1.15;;;;;;;-146.05;100.00;59461.22;5071821;28;20045;-87
2022/02/19 10:55:56;;;;;;;4.57;0.75;;;;;;;-146.05;100.00;59461.22;5071030;28;20129;-85
2022/02/19 10:58:24;;;;;;;3.83;0.60;;;;;;;-146.05;100.00;59461.22;5070990;28;20049;-82
2022/02/19 11:00:52;;;;;;;6.18;0.93;;;;;;;-146.05;100.00;59461.22;5070523;28;20426;-82
2022/02/19 11:03:21;;;;;;;2.92;0.93;;;;;;;-146.05;100.00;59461.22;5071882;28;20053;-85
2022/02/19 11:05:48;;;;;;;3.30;1.08;;;;;;;-146.05;100.00;59461.22;5071759;28;20495;-87
2022/02/19 11:08:17;;;;;;;2.38;0.80;;;;;;;-146.05;100.00;59461.22;5071210;28;20498;-81
2022/02/19 11:10:46;;;;;;;2.40;0.90;;;;;;;-146.05;100.00;59461.22;5068688;28;20056;-84
2022/02/19 11:13:15;;;;;;;5.22;1.42;;;;;;;-146.05;100.00;59461.22;5069748;28;20395;-86
2022/02/19 11:15:44;;;;;;;5.05;0.90;;;;;;;-146.05;100.00;59461.22;5068701;28;20072;-85
2022/02/19 11:18:12;;;;;;;5.35;1.00;;;;;;;-146.05;100.00;59461.22;5068405;28;20104;-79
2022/02/19 11:20:40;;;;;;;4.10;1.42;;;;;;;-146.05;100.00;59461.22;5067890;28;20419;-79
2022/02/19 11:23:11;;;;;;;6.00;1.00;;;;;;;-146.05;100.00;59461.22;5067190;28;20403;-80
2022/02/19 11:25:39;;;;;;;3.60;1.25;;;;;;;-146.05;100.00;59461.22;5069311;28;20403;-80